Time;durP1;ratioP1;P1;durP2;ratioP2;P2;SDS_P1;SDS_P2;PMS_P1;PMS_P2;Temp;Humidity;BMP_temperature;BMP_pressure;BME280_temperature;BME280_humidity;BME280_pressure;Samples;Min_cycle;Max_cycle;Signal;HPM_P1;HPM_P2
2020/12/22 00:01:56;;;;;;;67.10;42.30;;;;;;;4.12;87.43;101149.60;1691640;83;26961;-79
2020/12/22 00:04:24;;;;;;;71.60;42.58;;;;;;;4.11;87.46;101159.60;1695077;82;26413;-80
2020/12/22 00:06:57;;;;;;;69.40;43.20;;;;;;;4.08;87.34;101159.34;1695194;83;25721;-79
2020/12/22 00:09:24;;;;;;;71.10;44.40;;;;;;;4.08;87.50;101150.76;1696047;82;25788;-79
2020/12/22 00:11:52;;;;;;;65.15;40.17;;;;;;;4.07;87.59;101149.94;1698165;82;25734;-77
2020/12/22 00:14:18;;;;;;;78.25;42.33;;;;;;;4.04;87.48;101151.87;1696162;82;25704;-77
2020/12/22 00:16:45;;;;;;;69.80;41.23;;;;;;;4.03;87.49;101152.34;1696518;82;25980;-77
2020/12/22 00:19:11;;;;;;;65.62;40.85;;;;;;;4.04;87.55;101150.59;1695069;82;26235;-77
2020/12/22 00:21:38;;;;;;;63.63;39.30;;;;;;;4.04;87.47;101148.00;1695565;82;25831;-77
2020/12/22 00:24:04;;;;;;;63.98;40.67;;;;;;;4.05;87.46;101142.73;1696406;83;25819;-77
2020/12/22 00:26:31;;;;;;;68.35;39.88;;;;;;;4.04;87.32;101141.09;1694144;82;26457;-77
2020/12/22 00:28:57;;;;;;;61.08;38.55;;;;;;;4.05;87.36;101136.74;1692144;82;26005;-77
2020/12/22 00:31:24;;;;;;;66.47;42.83;;;;;;;4.05;87.29;101130.28;1692314;82;25809;-78
2020/12/22 00:33:53;;;;;;;68.37;42.25;;;;;;;4.06;87.30;101134.03;1693930;82;25803;-77
2020/12/22 00:36:19;;;;;;;70.22;43.83;;;;;;;4.08;87.31;101136.53;1694840;82;25709;-77
2020/12/22 00:38:46;;;;;;;77.20;44.23;;;;;;;4.07;87.33;101130.53;1696209;82;25672;-78
2020/12/22 00:41:15;;;;;;;66.30;41.23;;;;;;;4.08;87.34;101128.30;1695537;82;26218;-77
2020/12/22 00:43:42;;;;;;;69.82;41.75;;;;;;;4.00;87.04;101126.70;1695577;83;26546;-77
2020/12/22 00:46:09;;;;;;;70.17;41.90;;;;;;;3.93;87.09;101119.01;1696645;82;25869;-77
2020/12/22 00:48:35;;;;;;;66.02;39.48;;;;;;;3.89;87.18;101120.12;1689550;82;25702;-77
2020/12/22 00:51:02;;;;;;;68.47;39.20;;;;;;;3.89;87.19;101118.84;1697534;82;25794;-77
2020/12/22 00:53:29;;;;;;;67.58;39.90;;;;;;;3.89;87.27;101118.36;1696472;83;25810;-77
2020/12/22 00:55:56;;;;;;;60.50;37.38;;;;;;;3.87;87.07;101111.64;1695749;82;25710;-77
2020/12/22 00:58:22;;;;;;;65.37;40.38;;;;;;;3.88;87.19;101113.31;1696102;82;26662;-77
2020/12/22 01:00:49;;;;;;;63.38;38.48;;;;;;;3.87;87.22;101103.88;1692155;83;26765;-77
2020/12/22 01:03:15;;;;;;;65.35;41.60;;;;;;;3.86;87.14;101104.83;1676102;85;25899;-77
2020/12/22 01:05:42;;;;;;;73.92;43.98;;;;;;;3.83;87.09;101103.27;1677352;84;25766;-77
2020/12/22 01:08:09;;;;;;;71.62;44.10;;;;;;;3.83;87.26;101098.09;1675324;84;25853;-77
2020/12/22 01:10:35;;;;;;;68.50;42.95;;;;;;;3.80;87.15;101096.20;1677579;83;25824;-77
2020/12/22 01:13:01;;;;;;;73.10;44.30;;;;;;;3.79;87.36;101099.22;1679661;83;26322;-77
2020/12/22 01:15:28;;;;;;;64.37;41.42;;;;;;;3.80;87.61;101084.09;1675403;84;26322;-77
2020/12/22 01:17:54;;;;;;;60.40;38.48;;;;;;;3.79;87.44;101077.24;1676067;85;26340;-77
2020/12/22 01:20:21;;;;;;;62.05;38.80;;;;;;;3.79;87.36;101077.24;1674344;84;25693;-77
2020/12/22 01:22:47;;;;;;;58.35;38.33;;;;;;;3.79;87.45;101078.53;1675250;83;25833;-77
2020/12/22 01:25:13;;;;;;;58.48;38.90;;;;;;;3.77;87.23;101073.48;1672988;84;25815;-77
2020/12/22 01:27:40;;;;;;;63.83;38.48;;;;;;;3.78;87.37;101075.13;1675251;83;25701;-77
2020/12/22 01:30:06;;;;;;;60.75;37.20;;;;;;;3.81;87.40;101066.34;1678956;84;25801;-77
2020/12/22 01:32:33;;;;;;;60.17;38.73;;;;;;;3.88;87.51;101062.89;1678774;85;25754;-77
2020/12/22 01:34:59;;;;;;;61.92;38.98;;;;;;;3.89;87.37;101069.70;1678331;85;25691;-77
2020/12/22 01:37:25;;;;;;;65.20;39.90;;;;;;;3.88;87.31;101059.83;1672595;85;25994;-77
2020/12/22 01:39:52;;;;;;;65.57;38.65;;;;;;;3.91;87.33;101058.80;1677259;84;25940;-77
2020/12/22 01:42:18;;;;;;;66.42;40.35;;;;;;;3.96;87.49;101065.31;1670553;85;25768;-77
2020/12/22 01:44:45;;;;;;;66.75;41.45;;;;;;;3.97;87.38;101064.36;1675964;84;26415;-77
2020/12/22 01:47:12;;;;;;;68.35;40.65;;;;;;;3.95;87.34;101055.88;1673232;83;26470;-77
2020/12/22 01:49:40;;;;;;;59.33;38.65;;;;;;;3.95;87.25;101052.47;1676564;85;25821;-77
2020/12/22 01:52:07;;;;;;;54.60;36.45;;;;;;;3.86;87.10;101050.52;1675029;83;25864;-77
2020/12/22 01:54:33;;;;;;;60.08;35.55;;;;;;;3.83;87.17;101050.73;1675218;83;25824;-77
2020/12/22 01:57:10;;;;;;;53.52;34.55;;;;;;;3.81;87.23;101041.78;1673404;85;26394;-77
2020/12/22 01:59:36;;;;;;;53.38;34.65;;;;;;;3.86;87.42;101035.83;1665194;84;25891;-77
2020/12/22 02:02:03;;;;;;;56.25;33.55;;;;;;;3.90;87.40;101031.27;1676770;84;26356;-78
2020/12/22 02:04:30;;;;;;;51.65;32.45;;;;;;;3.92;87.34;101030.23;1675487;85;26442;-77
2020/12/22 02:07:14;;;;;;;50.55;33.85;;;;;;;3.96;87.28;101028.28;1674931;85;25966;-77
2020/12/22 02:09:43;;;;;;;58.83;35.08;;;;;;;3.97;87.15;101028.16;1676466;84;26369;-77
2020/12/22 02:12:09;;;;;;;62.85;37.03;;;;;;;3.97;87.13;101025.57;1678563;85;25713;-77
2020/12/22 02:14:36;;;;;;;59.88;37.35;;;;;;;3.97;87.18;101019.58;1677060;84;26282;-77
2020/12/22 02:17:02;;;;;;;61.40;37.55;;;;;;;3.98;87.14;101007.84;1674231;85;25760;-77
2020/12/22 02:19:29;;;;;;;58.78;38.50;;;;;;;3.96;87.04;101005.83;1676184;83;25951;-77
2020/12/22 02:21:55;;;;;;;59.30;37.63;;;;;;;3.93;87.01;101001.34;1675846;83;25832;-77
2020/12/22 02:24:22;;;;;;;60.67;35.63;;;;;;;3.90;86.99;100997.65;1677727;84;25745;-77
2020/12/22 02:26:48;;;;;;;58.13;38.50;;;;;;;3.88;87.02;100991.78;1673113;84;25650;-77
2020/12/22 02:29:15;;;;;;;57.00;36.10;;;;;;;3.86;86.90;100991.05;1677349;83;25837;-77
2020/12/22 02:31:41;;;;;;;57.10;34.35;;;;;;;3.86;86.93;100988.47;1677629;85;25951;-77
2020/12/22 02:34:08;;;;;;;45.58;31.07;;;;;;;3.85;86.92;100990.23;1674707;85;25763;-77
2020/12/22 02:36:34;;;;;;;52.00;32.25;;;;;;;3.85;86.83;100986.83;1677514;84;25726;-77
2020/12/22 02:39:01;;;;;;;52.33;32.42;;;;;;;3.85;86.95;100985.06;1676039;83;26653;-79
2020/12/22 02:41:27;;;;;;;51.23;32.23;;;;;;;3.86;86.80;100978.94;1677645;85;25818;-79
2020/12/22 02:43:54;;;;;;;55.28;35.25;;;;;;;3.88;86.78;100971.09;1677360;85;25806;-79
2020/12/22 02:46:21;;;;;;;51.08;32.05;;;;;;;3.84;86.62;100963.99;1672390;85;25767;-79
2020/12/22 02:48:47;;;;;;;49.75;34.88;;;;;;;3.85;86.64;100954.50;1676052;85;25873;-79
2020/12/22 02:51:14;;;;;;;49.58;33.92;;;;;;;3.81;86.63;100953.05;1677137;84;25857;-79
2020/12/22 02:53:40;;;;;;;50.12;32.48;;;;;;;3.75;86.54;100941.38;1676575;85;26359;-79
2020/12/22 02:56:08;;;;;;;48.20;32.55;;;;;;;3.74;86.62;100950.08;1676290;84;26463;-79
2020/12/22 02:58:58;;;;;;;53.63;34.23;;;;;;;3.69;86.61;100959.91;1677806;85;25852;-79
2020/12/22 03:01:24;;;;;;;53.38;34.58;;;;;;;3.64;86.59;100961.50;1677937;84;25795;-79
2020/12/22 03:03:51;;;;;;;50.40;32.10;;;;;;;3.58;87.07;100950.30;1697030;82;25916;-77
2020/12/22 03:06:17;;;;;;;49.50;31.97;;;;;;;3.58;87.07;100950.30;1696880;82;25756;-77
2020/12/22 03:08:44;;;;;;;56.73;33.50;;;;;;;3.56;86.67;100946.98;1696133;82;25686;-77
2020/12/22 03:11:10;;;;;;;48.08;33.75;;;;;;;3.61;86.78;100941.51;1694238;82;26407;-77
2020/12/22 03:13:37;;;;;;;47.43;32.20;;;;;;;3.64;86.70;100931.78;1695613;82;25826;-77
2020/12/22 03:16:03;;;;;;;52.05;33.13;;;;;;;3.60;86.57;100921.30;1694669;82;25771;-77
2020/12/22 03:18:29;;;;;;;50.65;34.55;;;;;;;3.60;86.48;100929.50;1696318;82;25785;-77
2020/12/22 03:20:56;;;;;;;50.15;33.53;;;;;;;3.54;86.31;100930.28;1714537;82;25777;-77
2020/12/22 03:23:22;;;;;;;54.15;34.33;;;;;;;3.50;86.44;100926.27;1695617;83;25744;-77
2020/12/22 03:25:49;;;;;;;58.92;36.50;;;;;;;3.49;86.53;100922.48;1686885;83;25909;-77
2020/12/22 03:28:15;;;;;;;55.05;36.35;;;;;;;3.50;86.65;100912.53;1693176;82;26486;-77
2020/12/22 03:30:42;;;;;;;57.15;35.52;;;;;;;3.46;86.57;100900.73;1694370;82;25785;-76
2020/12/22 03:33:08;;;;;;;57.98;35.52;;;;;;;3.42;86.59;100900.12;1694387;82;25916;-77
2020/12/22 03:35:34;;;;;;;54.50;34.30;;;;;;;3.39;86.59;100891.30;1694417;82;25878;-77
2020/12/22 03:38:02;;;;;;;48.60;33.63;;;;;;;3.40;86.71;100896.81;1694560;83;26621;-77
2020/12/22 03:40:41;;;;;;;50.38;33.10;;;;;;;3.41;86.71;100900.22;1693619;82;25822;-77
2020/12/22 03:43:08;;;;;;;54.30;32.78;;;;;;;3.40;86.59;100895.52;1695832;83;25681;-77
2020/12/22 03:45:38;;;;;;;53.50;35.08;;;;;;;3.38;86.53;100887.52;1694899;82;25706;-77
2020/12/22 03:48:04;;;;;;;56.33;38.10;;;;;;;3.33;86.36;100884.80;1695251;82;25768;-77
2020/12/22 03:50:31;;;;;;;53.00;34.80;;;;;;;3.33;86.55;100874.94;1696830;82;26322;-77
2020/12/22 03:53:01;;;;;;;57.13;36.35;;;;;;;3.38;86.66;100876.71;1696791;82;25874;-77
2020/12/22 03:55:28;;;;;;;52.65;36.15;;;;;;;3.39;86.58;100871.10;1694044;83;25794;-77
2020/12/22 03:57:54;;;;;;;61.40;36.20;;;;;;;3.39;86.42;100862.06;1696353;82;25781;-77
2020/12/22 04:00:21;;;;;;;58.33;35.90;;;;;;;3.34;86.45;100859.31;1694924;82;25883;-77
2020/12/22 04:02:47;;;;;;;56.95;36.13;;;;;;;3.30;86.34;100859.63;1690262;82;26374;-77
2020/12/22 04:05:14;;;;;;;60.98;37.58;;;;;;;3.24;86.36;100856.99;1693328;82;25779;-77
2020/12/22 04:07:41;;;;;;;56.23;37.50;;;;;;;3.18;86.36;100855.31;1694103;83;26272;-77
2020/12/22 04:10:08;;;;;;;62.13;37.23;;;;;;;3.15;86.63;100844.72;1692423;84;25609;-77
2020/12/22 04:12:36;;;;;;;53.13;34.38;;;;;;;3.15;86.63;100844.72;1694761;83;25691;-77
2020/12/22 04:15:04;;;;;;;58.98;37.90;;;;;;;3.17;86.49;100849.80;1695031;83;26633;-77
2020/12/22 04:17:32;;;;;;;55.25;35.48;;;;;;;3.19;86.60;100843.59;1694146;83;25669;-77
2020/12/22 04:19:58;;;;;;;59.77;36.75;;;;;;;3.13;86.61;100827.68;1691523;83;25877;-77
2020/12/22 04:22:24;;;;;;;53.90;34.43;;;;;;;3.22;86.46;100836.92;1694097;82;26747;-77
2020/12/22 04:24:51;;;;;;;57.60;37.00;;;;;;;3.17;86.42;100819.63;1701761;82;25775;-77
2020/12/22 04:27:17;;;;;;;60.30;37.23;;;;;;;3.21;86.39;100835.25;1669837;84;25888;-77
2020/12/22 04:29:44;;;;;;;58.28;36.28;;;;;;;3.21;86.40;100834.44;1714477;82;25937;-77
2020/12/22 04:32:10;;;;;;;65.47;40.28;;;;;;;3.18;86.24;100839.81;1694563;83;27108;-78
2020/12/22 04:34:37;;;;;;;63.20;37.93;;;;;;;3.18;86.42;100835.94;1697562;82;26381;-77
2020/12/22 04:37:03;;;;;;;60.52;38.08;;;;;;;3.14;86.34;100825.00;1679965;84;25772;-77
2020/12/22 04:39:29;;;;;;;58.40;38.73;;;;;;;2.92;86.19;100815.31;1693814;83;25871;-77
2020/12/22 04:42:24;;;;;;;69.85;39.80;;;;;;;2.92;86.19;100815.31;1693981;83;25805;-77
2020/12/22 04:44:51;;;;;;;57.93;37.85;;;;;;;3.02;86.41;100833.58;1692643;83;25751;-77
2020/12/22 04:47:18;;;;;;;53.08;33.45;;;;;;;3.00;86.42;100817.35;1700640;82;25900;-77
2020/12/22 04:49:49;;;;;;;61.02;38.20;;;;;;;2.99;86.40;100810.55;1694165;83;25717;-77
2020/12/22 04:52:16;;;;;;;57.40;34.98;;;;;;;2.98;86.51;100804.56;1700747;83;25327;-77
2020/12/22 04:54:43;;;;;;;52.70;33.95;;;;;;;3.02;86.52;100811.62;1713681;82;25701;-77
2020/12/22 04:57:11;;;;;;;54.88;35.70;;;;;;;3.03;86.49;100809.42;1695234;84;26444;-77
2020/12/22 04:59:39;;;;;;;55.38;34.80;;;;;;;3.06;86.54;100807.92;1693816;83;25987;-77
2020/12/22 05:02:08;;;;;;;58.87;36.10;;;;;;;3.07;86.39;100816.83;1692056;83;25758;-77
2020/12/22 05:04:37;;;;;;;54.45;33.02;;;;;;;3.06;86.33;100805.34;1695799;82;25638;-77
2020/12/22 05:07:07;;;;;;;56.08;35.23;;;;;;;3.08;86.37;100815.92;1689635;82;25382;-77
2020/12/22 05:09:34;;;;;;;58.02;36.88;;;;;;;3.06;86.33;100813.91;1689978;82;26920;-79
2020/12/22 05:12:01;;;;;;;60.28;36.83;;;;;;;3.08;86.42;100806.88;1695719;82;25790;-79
2020/12/22 05:14:30;;;;;;;53.15;34.92;;;;;;;3.10;86.47;100807.58;1694596;82;26539;-78
2020/12/22 05:16:57;;;;;;;62.15;38.63;;;;;;;3.08;86.33;100808.62;1692264;82;26612;-77
2020/12/22 05:19:23;;;;;;;57.55;35.55;;;;;;;3.05;86.33;100806.25;1693775;82;25775;-77
2020/12/22 05:21:52;;;;;;;58.52;37.25;;;;;;;3.04;86.38;100808.48;1695888;82;25942;-77
2020/12/22 05:24:19;;;;;;;55.65;34.08;;;;;;;3.01;86.29;100794.02;1672014;84;25863;-77
2020/12/22 05:26:46;;;;;;;52.58;33.78;;;;;;;3.03;86.29;100787.48;1695711;82;25866;-77
2020/12/22 05:29:18;;;;;;;55.55;34.58;;;;;;;3.04;86.29;100789.12;1691529;82;25307;-77
2020/12/22 05:31:48;;;;;;;56.98;35.15;;;;;;;3.05;86.35;100795.92;1696490;82;25481;-77
2020/12/22 05:34:16;;;;;;;55.52;34.15;;;;;;;3.08;86.40;100795.70;1697010;82;26792;-77
2020/12/22 05:36:45;;;;;;;55.70;35.00;;;;;;;3.10;86.33;100792.09;1697371;82;26709;-77
2020/12/22 05:39:13;;;;;;;57.55;36.98;;;;;;;3.11;86.24;100780.03;1697828;82;25796;-77
2020/12/22 05:41:40;;;;;;;51.33;32.08;;;;;;;3.01;85.74;100747.55;1716184;83;25902;-77
2020/12/22 05:44:08;;;;;;;61.08;36.42;;;;;;;3.01;85.74;100747.55;1694058;82;26334;-77
2020/12/22 05:46:38;;;;;;;59.23;37.90;;;;;;;3.09;85.92;100766.39;1694613;82;25770;-77
2020/12/22 05:49:07;;;;;;;59.85;36.25;;;;;;;3.08;86.19;100754.39;1693192;82;25834;-78
2020/12/22 05:51:34;;;;;;;58.55;35.13;;;;;;;3.08;86.15;100747.93;1703774;82;26368;-78
2020/12/22 05:54:06;;;;;;;52.98;34.13;;;;;;;3.05;86.12;100745.56;1718732;82;25702;-77
2020/12/22 05:56:35;;;;;;;55.80;32.70;;;;;;;3.02;86.27;100754.34;1718048;81;25907;-77
2020/12/22 05:59:03;;;;;;;53.50;33.00;;;;;;;3.02;86.27;100754.34;1717113;82;26442;-77
2020/12/22 06:01:35;;;;;;;54.90;34.83;;;;;;;3.00;86.02;100747.64;1678999;82;26167;-77
2020/12/22 06:04:03;;;;;;;53.13;31.85;;;;;;;2.98;86.03;100739.20;1693694;82;26377;-77
2020/12/22 06:06:33;;;;;;;53.75;31.93;;;;;;;2.89;86.12;100716.11;1696263;82;25765;-78
2020/12/22 06:09:00;;;;;;;52.80;32.00;;;;;;;3.04;85.97;100727.14;1694423;82;26367;-77
2020/12/22 06:11:29;;;;;;;50.65;32.08;;;;;;;3.03;85.95;100721.16;1696250;82;25881;-77
2020/12/22 06:13:58;;;;;;;48.60;31.10;;;;;;;3.01;85.87;100719.62;1695268;83;25808;-77
2020/12/22 06:16:24;;;;;;;49.80;29.87;;;;;;;2.98;85.87;100717.25;1695197;82;26395;-78
2020/12/22 06:18:52;;;;;;;54.13;32.90;;;;;;;3.00;85.83;100702.45;1692778;82;26033;-77
2020/12/22 06:21:20;;;;;;;47.35;29.82;;;;;;;2.83;85.85;100673.48;1695185;82;25732;-77
2020/12/22 06:23:48;;;;;;;46.90;30.00;;;;;;;2.78;85.82;100669.58;1696620;82;26701;-77
2020/12/22 06:26:19;;;;;;;49.25;30.85;;;;;;;2.92;85.86;100678.94;1693298;82;26292;-77
2020/12/22 06:28:46;;;;;;;46.75;29.52;;;;;;;2.89;85.93;100679.97;1696650;82;25742;-78
2020/12/22 06:31:22;;;;;;;47.95;29.67;;;;;;;2.83;85.84;100675.25;1697049;82;25791;-77
2020/12/22 06:33:53;;;;;;;45.40;28.83;;;;;;;2.82;85.90;100683.94;1691254;82;25811;-77
2020/12/22 06:36:19;;;;;;;;;;;;;;;2.84;86.02;100674.34;1699643;82;25865;-77
2020/12/22 06:39:01;;;;;;;43.40;27.60;;;;;;;2.80;85.85;100673.70;1692152;82;26371;-77
2020/12/22 06:41:39;;;;;;;47.10;30.45;;;;;;;2.79;85.88;100674.64;1697360;82;25786;-77
2020/12/22 06:44:19;;;;;;;47.85;29.80;;;;;;;2.82;86.27;100670.55;1692470;82;25757;-77
2020/12/22 06:46:51;;;;;;;47.83;29.48;;;;;;;2.83;85.95;100663.63;1694371;82;25715;-77
2020/12/22 06:49:19;;;;;;;47.55;30.48;;;;;;;2.78;85.88;100654.94;1694820;82;26396;-78
2020/12/22 06:51:45;;;;;;;48.50;32.03;;;;;;;2.83;86.00;100663.16;1694648;82;26430;-78
2020/12/22 06:54:20;;;;;;;51.10;32.28;;;;;;;2.80;85.77;100656.92;1694050;82;26702;-77
2020/12/22 06:56:50;;;;;;;52.65;30.85;;;;;;;2.81;85.95;100662.91;1694064;82;25916;-78
2020/12/22 06:59:45;;;;;;;49.03;31.25;;;;;;;2.76;85.69;100649.05;1697460;82;25760;-77
2020/12/22 07:02:36;;;;;;;47.08;28.12;;;;;;;2.74;85.86;100657.83;1694937;82;26489;-77
2020/12/22 07:05:05;;;;;;;42.65;27.62;;;;;;;2.72;85.91;100657.11;1695409;82;25768;-78
2020/12/22 07:07:57;;;;;;;44.20;27.03;;;;;;;2.69;85.97;100658.62;1694029;82;26340;-77
2020/12/22 07:10:29;;;;;;;45.43;28.65;;;;;;;2.75;85.73;100662.05;1691883;82;25720;-77
2020/12/22 07:12:58;;;;;;;45.50;27.15;;;;;;;2.75;85.73;100662.05;1698250;82;25801;-77
2020/12/22 07:15:33;;;;;;;44.73;27.27;;;;;;;2.73;85.86;100657.02;1694319;82;25896;-78
2020/12/22 07:18:13;;;;;;;45.63;28.47;;;;;;;2.63;85.95;100634.88;1695031;83;25934;-79
2020/12/22 07:20:42;;;;;;;45.33;27.93;;;;;;;2.79;85.85;100659.63;1695272;82;25861;-79
2020/12/22 07:23:14;;;;;;;39.30;26.53;;;;;;;2.76;85.77;100647.77;1697227;82;26438;-77
2020/12/22 07:25:42;;;;;;;42.75;28.47;;;;;;;2.77;85.83;100644.71;1696186;82;25741;-77
2020/12/22 07:28:11;;;;;;;43.20;27.30;;;;;;;2.76;85.92;100641.31;1694570;82;25810;-78
2020/12/22 07:30:38;;;;;;;40.23;26.27;;;;;;;2.75;85.79;100635.77;1695742;82;26427;-77
2020/12/22 07:33:05;;;;;;;41.45;26.10;;;;;;;2.80;85.76;100612.23;1694835;82;25669;-77
2020/12/22 07:35:33;;;;;;;42.93;27.25;;;;;;;2.80;85.76;100612.23;1692990;82;25748;-77
2020/12/22 07:38:08;;;;;;;38.60;25.37;;;;;;;2.78;85.67;100606.34;1696209;82;26238;-78
2020/12/22 07:40:39;;;;;;;40.83;25.48;;;;;;;2.80;85.72;100589.00;1695337;82;25664;-77
2020/12/22 07:43:12;;;;;;;38.28;23.95;;;;;;;2.82;85.65;100589.25;1696621;82;25515;-78
2020/12/22 07:45:50;;;;;;;41.70;27.55;;;;;;;2.69;85.45;100567.82;1692597;82;25525;-80
2020/12/22 07:48:17;;;;;;;42.13;25.20;;;;;;;2.69;85.45;100567.82;1692907;82;25893;-79
2020/12/22 07:50:46;;;;;;;38.33;25.55;;;;;;;2.76;85.79;100583.24;1695971;82;25727;-79
2020/12/22 07:53:13;;;;;;;41.35;26.68;;;;;;;2.76;85.79;100583.24;1693680;82;26405;-80
2020/12/22 07:55:40;;;;;;;48.15;29.98;;;;;;;2.84;85.46;100599.00;1696696;82;25537;-79
2020/12/22 07:58:09;;;;;;;40.90;26.48;;;;;;;2.81;85.40;100599.67;1696384;82;25668;-80
2020/12/22 08:00:36;;;;;;;41.88;26.20;;;;;;;2.80;85.43;100593.69;1692919;82;25811;-79
2020/12/22 08:03:14;;;;;;;44.65;27.65;;;;;;;2.79;85.43;100580.44;1694666;82;25839;-79
2020/12/22 08:05:40;;;;;;;39.08;26.02;;;;;;;2.78;85.30;100565.90;1694780;82;25809;-80
2020/12/22 08:08:07;;;;;;;40.90;26.10;;;;;;;2.75;85.28;100572.54;1697090;82;25875;-79
2020/12/22 08:10:36;;;;;;;36.53;23.10;;;;;;;2.75;85.36;100562.69;1694860;82;26036;-77
2020/12/22 08:13:05;;;;;;;39.27;22.93;;;;;;;2.76;85.38;100558.72;1692947;82;26413;-78
2020/12/22 08:15:32;;;;;;;37.98;24.63;;;;;;;2.75;85.13;100558.34;1696022;82;26005;-77
2020/12/22 08:18:00;;;;;;;35.60;21.95;;;;;;;2.75;85.25;100556.23;1690675;82;26658;-77
2020/12/22 08:20:26;;;;;;;41.00;24.63;;;;;;;2.73;85.17;100551.20;1698012;82;25515;-77
2020/12/22 08:22:53;;;;;;;36.50;24.52;;;;;;;2.74;85.29;100546.39;1696806;82;25316;-77
2020/12/22 08:25:20;;;;;;;40.90;25.97;;;;;;;2.78;85.36;100541.82;1694550;82;26457;-77
2020/12/22 08:27:46;;;;;;;41.50;25.80;;;;;;;2.78;85.36;100541.82;1695834;82;25900;-77
2020/12/22 08:30:21;;;;;;;40.63;26.77;;;;;;;2.80;85.29;100543.36;1698124;82;26380;-77
2020/12/22 08:32:48;;;;;;;40.92;25.17;;;;;;;2.76;85.16;100526.46;1697534;82;25890;-78
2020/12/22 08:35:20;;;;;;;39.98;26.02;;;;;;;2.76;85.15;100525.64;1694112;82;25738;-77
2020/12/22 08:37:47;;;;;;;40.75;24.07;;;;;;;2.73;85.22;100519.39;1696076;82;26306;-76
2020/12/22 08:40:31;;;;;;;42.15;25.08;;;;;;;2.72;85.14;100522.44;1692923;82;25663;-78
2020/12/22 08:42:58;;;;;;;40.55;25.20;;;;;;;2.67;85.09;100512.91;1699501;82;26266;-78
2020/12/22 08:45:26;;;;;;;41.92;26.33;;;;;;;2.70;85.26;100511.87;1695387;83;25906;-78
2020/12/22 08:47:53;;;;;;;36.85;22.17;;;;;;;2.72;85.35;100510.83;1694512;82;25532;-78
2020/12/22 08:50:20;;;;;;;34.58;22.30;;;;;;;2.72;85.13;100508.25;1695290;82;25801;-77
2020/12/22 08:52:47;;;;;;;35.80;22.95;;;;;;;2.71;85.04;100500.16;1695397;82;26198;-77
2020/12/22 08:55:13;;;;;;;36.53;22.67;;;;;;;2.74;85.20;100493.48;1669959;83;26417;-77
2020/12/22 08:57:40;;;;;;;34.45;22.55;;;;;;;2.61;84.76;100470.78;1693787;82;25839;-77
2020/12/22 09:00:15;;;;;;;35.52;24.30;;;;;;;2.61;84.76;100470.78;1692753;82;26568;-77
2020/12/22 09:02:50;;;;;;;40.83;24.52;;;;;;;2.70;84.95;100480.46;1694586;83;25676;-77
2020/12/22 09:05:17;;;;;;;37.15;24.15;;;;;;;2.68;85.22;100475.88;1695084;82;25701;-77
2020/12/22 09:07:44;;;;;;;40.23;23.05;;;;;;;2.68;85.22;100475.88;1691896;83;25890;-77
2020/12/22 09:10:11;;;;;;;39.33;23.38;;;;;;;2.65;85.47;100465.78;1695163;82;25800;-77
2020/12/22 09:12:38;;;;;;;33.70;21.77;;;;;;;2.65;85.47;100465.78;1693436;82;26007;-77
2020/12/22 09:15:08;;;;;;;34.53;23.05;;;;;;;2.67;85.07;100456.14;1694211;82;25857;-78
2020/12/22 09:17:36;;;;;;;35.50;21.35;;;;;;;2.67;85.07;100456.14;1695164;82;25647;-77
2020/12/22 09:20:06;;;;;;;32.98;21.02;;;;;;;2.63;85.37;100440.55;1699721;82;25678;-77
2020/12/22 09:22:35;;;;;;;38.48;23.05;;;;;;;2.60;85.44;100429.16;1696648;82;26548;-77
2020/12/22 09:25:05;;;;;;;37.20;22.77;;;;;;;2.71;85.57;100429.20;1694947;82;25820;-77
2020/12/22 09:27:38;;;;;;;34.58;21.97;;;;;;;2.72;85.54;100420.98;1693948;82;25795;-77
2020/12/22 09:30:11;;;;;;;38.10;23.60;;;;;;;2.71;85.61;100410.31;1695040;82;25677;-77
2020/12/22 09:32:37;;;;;;;39.75;23.32;;;;;;;2.71;85.61;100410.31;1696886;82;25867;-77
2020/12/22 09:35:05;;;;;;;38.20;22.67;;;;;;;2.67;85.93;100404.53;1695544;82;26366;-77
2020/12/22 09:37:32;;;;;;;39.98;25.27;;;;;;;2.65;85.93;100408.53;1695300;82;25814;-77
2020/12/22 09:39:58;;;;;;;37.28;23.70;;;;;;;2.54;86.15;100402.05;1693916;82;25910;-77
2020/12/22 09:42:27;;;;;;;38.30;23.95;;;;;;;2.54;86.15;100402.05;1696405;82;26242;-77
2020/12/22 09:44:54;;;;;;;37.83;23.67;;;;;;;2.55;86.25;100394.66;1695763;82;27061;-77
2020/12/22 09:47:20;;;;;;;38.33;23.57;;;;;;;2.57;86.31;100386.34;1696534;82;25959;-78
2020/12/22 09:49:47;;;;;;;37.65;22.87;;;;;;;2.50;86.15;100366.27;1694363;82;26424;-77
2020/12/22 09:52:13;;;;;;;34.95;22.58;;;;;;;2.50;86.15;100366.27;1695744;82;25906;-77
2020/12/22 09:54:40;;;;;;;33.40;22.37;;;;;;;2.65;86.51;100385.31;1695349;82;25824;-77
2020/12/22 09:57:06;;;;;;;36.15;24.27;;;;;;;2.62;86.47;100377.80;1694224;82;25775;-77
2020/12/22 09:59:33;;;;;;;36.08;22.73;;;;;;;2.48;86.88;100352.66;1694650;82;25829;-77
2020/12/22 10:01:59;;;;;;;36.65;22.52;;;;;;;2.48;86.88;100352.66;1694110;82;25723;-77
2020/12/22 10:04:26;;;;;;;32.50;22.45;;;;;;;2.58;86.78;100358.31;1693096;82;25791;-77
2020/12/22 10:06:53;;;;;;;39.08;22.70;;;;;;;2.61;86.89;100370.16;1668434;84;25872;-77
2020/12/22 10:09:20;;;;;;;38.20;23.50;;;;;;;2.63;86.91;100356.69;1665889;84;26677;-77
2020/12/22 10:11:47;;;;;;;36.13;23.10;;;;;;;2.63;86.93;100355.39;1666089;84;26363;-77
2020/12/22 10:14:14;;;;;;;41.25;24.37;;;;;;;2.44;86.86;100318.53;1668852;84;25770;-77
2020/12/22 10:16:41;;;;;;;45.48;26.62;;;;;;;2.63;87.07;100342.02;1667595;84;26004;-77
2020/12/22 10:19:07;;;;;;;39.85;23.83;;;;;;;2.65;87.19;100344.50;1668955;84;25815;-79
2020/12/22 10:21:34;;;;;;;41.98;26.05;;;;;;;2.63;87.17;100343.78;1668116;84;26110;-79
2020/12/22 10:24:04;;;;;;;43.83;26.75;;;;;;;2.63;87.37;100336.86;1670678;84;25894;-79
2020/12/22 10:26:28;;;;;;;36.88;23.92;;;;;;;2.65;87.32;100330.31;1667148;84;25622;-77
2020/12/22 10:28:56;;;;;;;44.05;23.42;;;;;;;2.65;87.32;100330.31;1649306;85;25553;-77
2020/12/22 10:31:24;;;;;;;36.70;24.23;;;;;;;2.61;87.34;100330.98;1669216;84;25874;-77
2020/12/22 10:33:52;;;;;;;34.50;21.87;;;;;;;2.64;87.48;100324.78;1668969;84;26425;-78
2020/12/22 10:36:21;;;;;;;40.12;25.72;;;;;;;2.51;87.51;100299.54;1668822;84;26319;-77
2020/12/22 10:38:50;;;;;;;60.28;34.75;;;;;;;2.51;87.51;100299.54;1667796;84;25838;-77
2020/12/22 10:41:16;;;;;;;105.92;62.27;;;;;;;2.63;87.50;100309.77;1668895;84;25776;-77
2020/12/22 10:43:43;;;;;;;64.05;39.20;;;;;;;2.61;87.64;100292.28;1669059;84;25510;-78
2020/12/22 10:46:09;;;;;;;51.80;32.65;;;;;;;2.61;87.64;100292.28;1670425;84;27323;-77
2020/12/22 10:48:36;;;;;;;45.63;29.70;;;;;;;2.58;87.84;100289.13;1694967;82;26300;-77
2020/12/22 10:51:02;;;;;;;45.43;28.85;;;;;;;2.58;88.03;100284.78;1699677;82;25790;-77
2020/12/22 10:53:29;;;;;;;52.43;38.25;;;;;;;2.60;88.08;100278.23;1684106;83;25682;-77
2020/12/22 10:55:55;;;;;;;42.53;27.67;;;;;;;2.60;88.23;100271.78;1699425;82;25760;-77
2020/12/22 10:58:22;;;;;;;36.80;24.12;;;;;;;2.65;88.20;100273.07;1701054;82;25781;-77
2020/12/22 11:00:48;;;;;;;37.55;22.50;;;;;;;2.69;88.26;100256.06;1645092;85;25710;-78
2020/12/22 11:03:19;;;;;;;34.05;22.80;;;;;;;2.69;88.26;100256.06;1647435;85;25765;-78
2020/12/22 11:08:29;;;;;;;30.23;18.82;;;;;;;2.76;88.37;100245.64;1671543;84;25777;-78
2020/12/22 11:10:55;;;;;;;30.17;19.75;;;;;;;2.74;88.45;100235.42;1675000;84;26018;-78
2020/12/22 11:13:21;;;;;;;35.25;21.97;;;;;;;2.72;88.49;100242.92;1667479;84;25784;-78
2020/12/22 11:15:48;;;;;;;33.25;19.87;;;;;;;2.75;88.86;100231.89;1688664;83;26217;-77
2020/12/22 11:18:14;;;;;;;35.10;22.02;;;;;;;2.75;88.86;100231.89;1681550;84;25759;-77
2020/12/22 11:20:41;;;;;;;36.23;21.52;;;;;;;2.78;88.48;100229.09;1686677;83;25791;-77
2020/12/22 11:23:07;;;;;;;33.80;20.37;;;;;;;2.80;88.57;100225.09;1660875;84;26395;-78
2020/12/22 11:25:34;;;;;;;36.23;22.77;;;;;;;2.79;88.70;100224.75;1693405;83;26681;-77